createdAt,value
2022-08-16T00:01:41.285Z,19.40
2022-08-16T00:04:10.353Z,19.40
2022-08-16T00:06:39.404Z,19.40
2022-08-16T00:09:08.035Z,19.40
2022-08-16T00:11:39.628Z,19.40
2022-08-16T00:14:14.346Z,19.40
2022-08-16T00:17:11.793Z,19.40
2022-08-16T00:19:41.247Z,19.40
2022-08-16T00:22:13.468Z,19.40
2022-08-16T00:24:44.978Z,19.40
2022-08-16T00:27:15.838Z,19.50
2022-08-16T00:29:47.658Z,19.50
2022-08-16T00:32:32.798Z,19.50
2022-08-16T00:35:15.431Z,19.50
2022-08-16T00:37:57.237Z,19.50
2022-08-16T00:40:34.510Z,19.50
2022-08-16T00:43:04.804Z,19.50
2022-08-16T00:45:39.263Z,19.50
2022-08-16T00:48:30.732Z,19.40
2022-08-16T00:51:00.395Z,19.40
2022-08-16T00:53:30.862Z,19.40
2022-08-16T00:56:05.485Z,19.40
2022-08-16T00:58:37.091Z,19.30
2022-08-16T01:01:10.636Z,19.30
2022-08-16T01:03:41.889Z,19.30
2022-08-16T01:06:32.560Z,19.20
2022-08-16T01:09:04.624Z,19.20
2022-08-16T01:11:34.763Z,19.20
2022-08-16T01:14:26.229Z,19.20
2022-08-16T01:17:02.227Z,19.20
2022-08-16T01:19:34.557Z,19.30
2022-08-16T01:22:49.875Z,19.40
2022-08-16T01:25:03.768Z,19.40
2022-08-16T01:27:37.055Z,19.40
2022-08-16T01:30:20.459Z,19.50
2022-08-16T01:33:02.108Z,19.50
2022-08-16T01:35:36.751Z,19.60
2022-08-16T01:38:20.589Z,19.60
2022-08-16T01:40:54.899Z,19.70
2022-08-16T01:43:25.117Z,19.80
2022-08-16T01:45:57.919Z,19.90
2022-08-16T01:48:31.816Z,19.90
2022-08-16T01:51:08.959Z,20.00
2022-08-16T01:53:45.175Z,20.00
2022-08-16T01:56:32.942Z,20.10
2022-08-16T01:59:05.875Z,20.10
2022-08-16T02:01:34.965Z,20.10
2022-08-16T02:04:10.886Z,20.20
2022-08-16T02:06:46.678Z,20.20
2022-08-16T02:09:19.215Z,20.20
2022-08-16T02:11:53.790Z,20.10
2022-08-16T02:14:26.382Z,20.10
2022-08-16T02:16:59.372Z,20.10
2022-08-16T02:19:58.898Z,20.10
2022-08-16T02:22:34.623Z,20.10
2022-08-16T02:25:09.884Z,20.00
2022-08-16T02:27:41.294Z,20.00
2022-08-16T02:30:37.386Z,20.00
2022-08-16T02:33:04.336Z,20.00
2022-08-16T02:35:33.980Z,19.90
2022-08-16T02:38:08.896Z,19.90
2022-08-16T02:40:39.765Z,19.90
2022-08-16T02:43:13.236Z,19.90
2022-08-16T02:45:41.648Z,19.90
2022-08-16T02:48:29.550Z,19.90
2022-08-16T02:51:10.444Z,19.90
2022-08-16T02:53:44.772Z,19.90
2022-08-16T02:56:15.192Z,19.90
2022-08-16T02:58:47.217Z,19.80
2022-08-16T03:01:25.103Z,19.70
2022-08-16T03:04:49.569Z,19.70
2022-08-16T03:07:00.459Z,19.60
2022-08-16T03:09:44.300Z,19.50
2022-08-16T03:12:17.756Z,19.50
2022-08-16T03:14:49.113Z,19.50
2022-08-16T03:17:21.940Z,19.50
2022-08-16T03:19:59.807Z,19.40
2022-08-16T03:22:33.322Z,19.40
2022-08-16T03:25:10.270Z,19.30
2022-08-16T03:27:42.880Z,19.30
2022-08-16T03:30:22.096Z,19.20
2022-08-16T03:32:54.954Z,19.20
2022-08-16T03:35:33.433Z,19.20
2022-08-16T03:38:33.955Z,19.20
2022-08-16T03:41:14.434Z,19.20
2022-08-16T03:43:57.173Z,19.20
2022-08-16T03:46:45.124Z,19.20
2022-08-16T03:49:20.165Z,19.30
2022-08-16T03:51:52.498Z,19.30
2022-08-16T03:54:25.519Z,19.30
2022-08-16T03:56:58.823Z,19.30
2022-08-16T03:59:31.369Z,19.20
2022-08-16T04:02:12.102Z,19.20
2022-08-16T04:04:53.977Z,19.10
2022-08-16T04:07:24.723Z,19.00
2022-08-16T04:09:53.634Z,19.00
2022-08-16T04:13:04.265Z,19.00
2022-08-16T04:15:13.602Z,19.00
2022-08-16T04:18:02.052Z,19.00
2022-08-16T04:20:33.982Z,19.00
2022-08-16T04:23:08.155Z,18.90
2022-08-16T04:25:39.038Z,18.90
2022-08-16T04:28:29.007Z,18.90
2022-08-16T04:30:59.303Z,18.90
2022-08-16T04:33:29.711Z,18.90
2022-08-16T04:36:03.912Z,19.00
2022-08-16T04:38:33.021Z,19.00
2022-08-16T04:41:01.394Z,19.10
2022-08-16T04:43:30.983Z,19.20
2022-08-16T04:46:03.109Z,19.30
2022-08-16T04:48:39.357Z,19.40
2022-08-16T04:51:12.860Z,19.50
2022-08-16T04:53:45.455Z,19.60
2022-08-16T04:56:16.512Z,19.70
2022-08-16T04:58:46.927Z,19.70
2022-08-16T05:01:18.706Z,19.80
2022-08-16T05:04:00.294Z,19.90
2022-08-16T05:06:45.152Z,20.00
2022-08-16T05:09:25.136Z,20.00
2022-08-16T05:11:57.539Z,20.10
2022-08-16T05:14:42.308Z,20.10
2022-08-16T05:17:24.897Z,20.10
2022-08-16T05:19:58.981Z,20.10
2022-08-16T05:22:36.282Z,20.20
2022-08-16T05:25:09.027Z,20.20
2022-08-16T05:27:43.769Z,20.20
2022-08-16T05:30:34.995Z,20.20
2022-08-16T05:33:16.376Z,20.20
2022-08-16T05:35:53.699Z,20.20
2022-08-16T05:38:39.029Z,20.20
2022-08-16T05:41:14.928Z,20.20
2022-08-16T05:43:47.705Z,20.30
2022-08-16T05:46:31.440Z,20.50
2022-08-16T05:49:16.593Z,20.60
2022-08-16T05:51:55.027Z,20.80
2022-08-16T05:54:25.886Z,20.90
2022-08-16T05:57:00.213Z,21.10
2022-08-16T05:59:30.152Z,21.20
2022-08-16T06:01:59.988Z,21.40
2022-08-16T06:04:35.983Z,21.60
2022-08-16T06:07:24.565Z,21.80
2022-08-16T06:10:03.631Z,22.10
2022-08-16T06:12:35.504Z,22.40
2022-08-16T06:15:09.882Z,22.60
2022-08-16T06:17:44.487Z,22.80
2022-08-16T06:20:25.671Z,22.90
2022-08-16T06:23:17.285Z,23.10
2022-08-16T06:26:09.159Z,23.20
2022-08-16T06:28:44.608Z,23.30
2022-08-16T06:31:24.545Z,23.40
2022-08-16T06:33:55.227Z,23.50
2022-08-16T06:36:24.623Z,23.60
2022-08-16T06:39:22.363Z,23.70
2022-08-16T06:41:50.564Z,23.60
2022-08-16T06:44:33.372Z,23.60
2022-08-16T06:47:05.437Z,23.80
2022-08-16T06:49:33.926Z,24.20
2022-08-16T06:52:03.491Z,25.00
2022-08-16T06:54:40.004Z,26.10
2022-08-16T06:57:16.628Z,27.00
2022-08-16T06:59:52.717Z,27.40
2022-08-16T07:02:32.842Z,27.40
2022-08-16T07:05:14.890Z,27.20
2022-08-16T07:07:52.390Z,27.00
2022-08-16T07:10:26.886Z,27.00
2022-08-16T07:13:04.399Z,27.00
2022-08-16T07:15:49.977Z,27.10
2022-08-16T07:18:24.457Z,27.10
2022-08-16T07:20:54.050Z,27.40
2022-08-16T07:23:37.243Z,27.40
2022-08-16T07:26:24.449Z,27.10
2022-08-16T07:28:58.300Z,27.00
2022-08-16T07:31:37.504Z,27.20
2022-08-16T07:34:11.063Z,27.10
2022-08-16T07:36:41.412Z,27.10
2022-08-16T07:39:13.878Z,27.40
2022-08-16T07:41:45.885Z,27.50
2022-08-16T07:44:16.905Z,27.60
2022-08-16T07:46:47.885Z,27.50
2022-08-16T07:49:24.597Z,27.30
2022-08-16T07:51:55.959Z,27.20
2022-08-16T07:54:32.546Z,27.20
2022-08-16T07:57:13.192Z,27.10
2022-08-16T07:59:46.002Z,27.30
2022-08-16T08:02:20.090Z,27.80
2022-08-16T08:04:52.776Z,28.00
2022-08-16T08:07:21.371Z,28.50
2022-08-16T08:09:52.157Z,28.70
2022-08-16T08:12:32.447Z,28.90
2022-08-16T08:15:13.239Z,28.80
2022-08-16T08:17:44.818Z,28.90
2022-08-16T08:20:26.703Z,29.50
2022-08-16T08:23:00.754Z,30.50
2022-08-16T08:25:54.182Z,31.90
2022-08-16T08:28:26.258Z,33.10
2022-08-16T08:31:02.944Z,34.90
2022-08-16T08:33:43.825Z,35.90
2022-08-16T08:36:23.646Z,36.80
2022-08-16T08:38:55.919Z,37.80
2022-08-16T08:41:29.419Z,37.50
2022-08-16T08:44:29.229Z,37.50
2022-08-16T08:47:00.329Z,38.30
2022-08-16T08:49:46.630Z,39.00
2022-08-16T08:52:34.536Z,39.60
2022-08-16T08:55:10.272Z,39.50
2022-08-16T08:57:42.920Z,39.10
2022-08-16T09:00:27.091Z,38.90
2022-08-16T09:03:04.189Z,38.30
2022-08-16T09:05:37.552Z,37.50
2022-08-16T09:08:09.181Z,35.60
2022-08-16T09:11:02.030Z,35.00
2022-08-16T09:13:34.021Z,34.80
2022-08-16T09:16:05.606Z,34.90
2022-08-16T09:18:35.350Z,34.70
2022-08-16T09:21:31.492Z,34.90
2022-08-16T09:24:00.329Z,34.80
2022-08-16T09:26:45.671Z,35.00
2022-08-16T09:29:24.227Z,35.30
2022-08-16T09:32:07.660Z,35.70
2022-08-16T09:34:36.994Z,35.60
2022-08-16T09:37:18.104Z,35.70
2022-08-16T09:39:50.301Z,35.70
2022-08-16T09:42:19.128Z,35.80
2022-08-16T09:45:12.535Z,35.40
2022-08-16T09:47:56.462Z,34.80
2022-08-16T09:50:33.238Z,34.50
2022-08-16T09:53:15.319Z,34.00
2022-08-16T09:55:49.012Z,33.50
2022-08-16T09:58:41.564Z,33.20
2022-08-16T10:01:08.432Z,32.60
2022-08-16T10:04:01.524Z,32.50
2022-08-16T10:06:33.670Z,32.40
2022-08-16T10:09:05.225Z,32.30
2022-08-16T10:11:52.633Z,32.40
2022-08-16T10:14:24.563Z,32.40
2022-08-16T10:16:59.996Z,32.50
2022-08-16T10:19:33.481Z,32.50
2022-08-16T10:22:05.276Z,32.70
2022-08-16T10:24:34.612Z,33.20
2022-08-16T10:27:26.698Z,33.90
2022-08-16T10:30:00.979Z,34.40
2022-08-16T10:32:32.140Z,35.00
2022-08-16T10:35:03.452Z,36.30
2022-08-16T10:37:35.900Z,37.70
2022-08-16T10:40:29.337Z,39.10
2022-08-16T10:42:55.662Z,40.90
2022-08-16T10:45:23.918Z,42.00
2022-08-16T10:47:58.888Z,42.70
2022-08-16T10:50:33.576Z,43.20
2022-08-16T10:53:07.328Z,43.00
2022-08-16T10:55:40.339Z,43.80
2022-08-16T10:58:16.736Z,45.00
2022-08-16T11:00:46.495Z,46.50
2022-08-16T11:06:09.511Z,43.40
2022-08-16T11:08:44.921Z,41.90
2022-08-16T11:11:19.837Z,41.40
2022-08-16T11:13:58.906Z,40.70
2022-08-16T11:19:17.863Z,39.90
2022-08-16T11:24:42.251Z,44.40
2022-08-16T11:27:23.175Z,47.50
2022-08-16T11:29:55.123Z,49.90
2022-08-16T11:32:31.759Z,51.40
2022-08-16T11:35:10.632Z,49.60
2022-08-16T11:40:36.232Z,47.70
2022-08-16T11:43:05.586Z,48.70
2022-08-16T11:45:35.135Z,48.40
2022-08-16T11:48:06.293Z,49.00
2022-08-16T11:50:35.337Z,49.90
2022-08-16T11:53:08.315Z,50.20
2022-08-16T11:55:38.635Z,49.70
2022-08-16T11:58:08.722Z,49.30
2022-08-16T12:00:51.087Z,50.20
2022-08-16T12:03:31.084Z,51.20
2022-08-16T12:06:10.926Z,52.00
2022-08-16T12:09:00.735Z,53.30
2022-08-16T12:11:31.322Z,53.20
2022-08-16T12:14:00.838Z,52.20
2022-08-16T12:16:31.381Z,51.00
2022-08-16T12:19:03.439Z,49.20
2022-08-16T12:21:36.174Z,48.20
2022-08-16T12:24:23.794Z,48.90
2022-08-16T12:26:52.697Z,49.80
2022-08-16T12:29:22.721Z,49.70
2022-08-16T12:31:59.343Z,49.40
2022-08-16T12:34:50.936Z,49.80
2022-08-16T12:37:24.128Z,50.30
2022-08-16T12:39:56.099Z,49.80
2022-08-16T12:42:35.379Z,49.60
2022-08-16T12:45:16.243Z,49.70
2022-08-16T12:48:31.488Z,50.40
2022-08-16T12:50:53.422Z,51.00
2022-08-16T12:53:25.726Z,50.40
2022-08-16T12:56:02.004Z,50.30
2022-08-16T12:58:50.506Z,50.30
2022-08-16T13:01:22.506Z,50.30
2022-08-16T13:04:08.376Z,50.30
2022-08-16T13:06:41.028Z,50.00
2022-08-16T13:09:20.556Z,48.80
2022-08-16T13:12:00.241Z,48.00
2022-08-16T13:14:33.800Z,47.60
2022-08-16T13:17:05.163Z,47.00
2022-08-16T13:20:05.489Z,46.80
2022-08-16T13:22:24.775Z,46.80
2022-08-16T13:24:54.397Z,46.50
2022-08-16T13:28:01.788Z,45.80
2022-08-16T13:30:36.519Z,45.30
2022-08-16T13:33:01.576Z,45.10
2022-08-16T13:35:42.727Z,44.90
2022-08-16T13:38:24.164Z,43.80
2022-08-16T13:40:55.903Z,42.40
2022-08-16T13:43:26.859Z,40.70
2022-08-16T13:45:56.444Z,39.10
2022-08-16T13:48:25.906Z,38.10
2022-08-16T13:50:55.037Z,37.80
2022-08-16T13:53:25.338Z,37.60
2022-08-16T13:55:58.548Z,37.40
2022-08-16T13:58:36.422Z,37.10
2022-08-16T14:01:09.804Z,36.70
2022-08-16T14:03:40.187Z,36.30
2022-08-16T14:06:10.473Z,35.80
2022-08-16T14:08:42.168Z,35.50
2022-08-16T14:11:12.465Z,35.30
2022-08-16T14:13:42.726Z,35.30
2022-08-16T14:16:23.375Z,35.40
2022-08-16T14:18:53.134Z,35.40
2022-08-16T14:21:22.123Z,35.50
2022-08-16T14:23:53.395Z,35.30
2022-08-16T14:26:21.633Z,34.90
2022-08-16T14:28:55.114Z,34.70
2022-08-16T14:31:31.326Z,34.30
2022-08-16T14:34:00.936Z,33.80
2022-08-16T14:36:29.755Z,33.60
2022-08-16T14:38:58.823Z,33.50
2022-08-16T14:41:27.504Z,33.20
2022-08-16T14:43:58.412Z,32.90
2022-08-16T14:46:26.526Z,32.50
2022-08-16T14:48:55.199Z,32.10
2022-08-16T14:51:23.384Z,31.80
2022-08-16T14:53:56.921Z,31.50
2022-08-16T14:56:42.946Z,31.10
2022-08-16T14:59:14.469Z,30.90
2022-08-16T15:01:59.112Z,30.60
2022-08-16T15:04:32.374Z,30.40
2022-08-16T15:07:10.878Z,30.20
2022-08-16T15:09:44.819Z,30.10
2022-08-16T15:12:33.881Z,30.00
2022-08-16T15:15:12.656Z,30.00
2022-08-16T15:17:53.980Z,30.00
2022-08-16T15:20:26.669Z,30.00
2022-08-16T15:22:55.912Z,30.10
2022-08-16T15:25:27.589Z,30.00
2022-08-16T15:27:58.575Z,30.00
2022-08-16T15:30:58.308Z,30.00
2022-08-16T15:33:19.610Z,30.00
2022-08-16T15:35:50.351Z,30.00
2022-08-16T15:38:54.863Z,30.10
2022-08-16T15:41:07.100Z,30.30
2022-08-16T15:43:39.883Z,30.40
2022-08-16T15:46:34.937Z,30.50
2022-08-16T15:49:14.762Z,30.60
2022-08-16T15:51:45.377Z,30.90
2022-08-16T15:54:21.192Z,31.10
2022-08-16T15:57:04.224Z,31.10
2022-08-16T15:59:48.486Z,31.00
2022-08-16T16:02:29.305Z,30.90
2022-08-16T16:05:01.835Z,31.00
2022-08-16T16:07:33.409Z,31.10
2022-08-16T16:10:03.830Z,31.20
2022-08-16T16:12:53.484Z,31.30
2022-08-16T16:15:23.081Z,31.40
2022-08-16T16:17:54.457Z,31.40
2022-08-16T16:20:27.136Z,31.40
2022-08-16T16:22:57.701Z,31.40
2022-08-16T16:25:27.964Z,31.30
2022-08-16T16:27:59.743Z,31.20
2022-08-16T16:30:37.733Z,31.00
2022-08-16T16:33:21.384Z,30.90
2022-08-16T16:35:55.704Z,30.60
2022-08-16T16:38:30.965Z,30.30
2022-08-16T16:40:59.620Z,30.00
2022-08-16T16:43:31.690Z,29.80
2022-08-16T16:46:01.966Z,29.50
2022-08-16T16:48:35.581Z,29.20
2022-08-16T16:51:09.755Z,28.90
2022-08-16T16:53:41.393Z,28.60
2022-08-16T16:56:20.362Z,28.40
2022-08-16T16:59:01.123Z,28.10
2022-08-16T17:01:59.093Z,27.90
2022-08-16T17:04:34.778Z,27.70
2022-08-16T17:07:03.292Z,27.40
2022-08-16T17:09:32.249Z,27.30
2022-08-16T17:12:00.595Z,27.10
2022-08-16T17:14:32.061Z,27.00
2022-08-16T17:17:04.057Z,26.90
2022-08-16T17:19:34.058Z,26.80
2022-08-16T17:22:14.142Z,26.60
2022-08-16T17:24:50.972Z,26.50
2022-08-16T17:27:33.709Z,26.50
2022-08-16T17:30:14.621Z,26.40
2022-08-16T17:32:47.847Z,26.40
2022-08-16T17:35:22.987Z,26.30
2022-08-16T17:37:52.539Z,26.30
2022-08-16T17:40:40.238Z,26.30
2022-08-16T17:43:13.391Z,26.30
2022-08-16T17:45:43.136Z,26.20
2022-08-16T17:48:11.794Z,26.20
2022-08-16T17:50:43.039Z,26.20
2022-08-16T17:53:12.467Z,26.20
2022-08-16T17:55:42.701Z,26.20
2022-08-16T17:58:23.330Z,26.10
2022-08-16T18:00:54.700Z,26.00
2022-08-16T18:04:02.392Z,26.00
2022-08-16T18:06:18.376Z,25.90
2022-08-16T18:08:48.642Z,25.90
2022-08-16T18:11:26.057Z,25.80
2022-08-16T18:13:55.908Z,25.70
2022-08-16T18:16:24.559Z,25.70
2022-08-16T18:18:52.847Z,25.60
2022-08-16T18:21:40.587Z,25.60
2022-08-16T18:24:10.003Z,25.50
2022-08-16T18:26:38.603Z,25.50
2022-08-16T18:29:07.433Z,25.40
2022-08-16T18:31:35.886Z,25.40
2022-08-16T18:34:04.881Z,25.30
2022-08-16T18:36:34.748Z,25.30
2022-08-16T18:39:03.008Z,25.30
2022-08-16T18:41:33.624Z,25.20
2022-08-16T18:44:26.201Z,25.20
2022-08-16T18:46:50.727Z,25.10
2022-08-16T18:49:19.747Z,25.10
2022-08-16T18:51:50.770Z,25.00
2022-08-16T18:54:20.007Z,24.90
2022-08-16T18:56:56.850Z,24.80
2022-08-16T18:59:28.123Z,24.80
2022-08-16T19:02:00.121Z,24.70
2022-08-16T19:04:56.412Z,24.70
2022-08-16T19:07:22.252Z,24.60
2022-08-16T19:09:50.443Z,24.60
2022-08-16T19:12:37.909Z,24.60
2022-08-16T19:15:11.884Z,24.50
2022-08-16T19:17:40.418Z,24.50
2022-08-16T19:20:11.031Z,24.50
2022-08-16T19:25:47.351Z,24.50
2022-08-16T19:28:48.931Z,24.50
2022-08-16T19:31:10.700Z,24.40
2022-08-16T19:33:39.500Z,24.40
2022-08-16T19:36:08.252Z,24.30
2022-08-16T19:38:46.713Z,24.30
2022-08-16T19:41:15.743Z,24.20
2022-08-16T19:43:44.024Z,24.10
2022-08-16T19:46:12.280Z,24.00
2022-08-16T19:48:40.555Z,23.90
2022-08-16T19:51:10.073Z,23.80
2022-08-16T19:53:38.198Z,23.70
2022-08-16T19:56:08.121Z,23.60
2022-08-16T19:58:36.818Z,23.40
2022-08-16T20:01:05.245Z,23.30
2022-08-16T20:03:33.442Z,23.20
2022-08-16T20:06:01.534Z,23.10
2022-08-16T20:08:29.929Z,23.00
2022-08-16T20:10:58.261Z,23.00
2022-08-16T20:13:28.324Z,22.90
2022-08-16T20:15:56.869Z,22.90
2022-08-16T20:18:25.762Z,22.90
2022-08-16T20:20:55.271Z,22.80
2022-08-16T20:23:25.545Z,22.80
2022-08-16T20:25:55.626Z,22.80
2022-08-16T20:28:39.458Z,22.70
2022-08-16T20:31:14.017Z,22.70
2022-08-16T20:33:42.172Z,22.60
2022-08-16T20:36:10.635Z,22.60
2022-08-16T20:38:46.990Z,22.50
2022-08-16T20:41:15.997Z,22.40
2022-08-16T20:43:45.550Z,22.40
2022-08-16T20:46:16.176Z,22.30
2022-08-16T20:48:44.589Z,22.30
2022-08-16T20:51:13.456Z,22.30
2022-08-16T20:53:42.506Z,22.20
2022-08-16T20:56:12.888Z,22.20
2022-08-16T20:58:41.037Z,22.10
2022-08-16T21:01:09.779Z,22.10
2022-08-16T21:03:39.624Z,22.10
2022-08-16T21:06:08.320Z,22.00
2022-08-16T21:08:51.792Z,22.00
2022-08-16T21:11:21.602Z,22.00
2022-08-16T21:13:49.738Z,21.90
2022-08-16T21:16:18.644Z,21.90
2022-08-16T21:18:48.284Z,21.80
2022-08-16T21:21:16.359Z,21.70
2022-08-16T21:23:45.039Z,21.70
2022-08-16T21:26:13.099Z,21.60
2022-08-16T21:28:43.445Z,21.60
2022-08-16T21:31:13.013Z,21.60
2022-08-16T21:33:41.491Z,21.50
2022-08-16T21:36:12.145Z,21.50
2022-08-16T21:38:41.240Z,21.50
2022-08-16T21:41:11.321Z,21.40
2022-08-16T21:43:39.733Z,21.30
2022-08-16T21:46:09.664Z,21.20
2022-08-16T21:48:40.679Z,21.20
2022-08-16T21:51:12.832Z,21.10
2022-08-16T21:53:41.572Z,21.00
2022-08-16T21:56:17.060Z,20.90
2022-08-16T21:58:46.003Z,20.80
2022-08-16T22:01:15.099Z,20.80
2022-08-16T22:03:43.786Z,20.70
2022-08-16T22:06:14.730Z,20.70
2022-08-16T22:08:49.493Z,20.60
2022-08-16T22:11:24.470Z,20.50
2022-08-16T22:13:58.898Z,20.50
2022-08-16T22:16:33.177Z,20.40
2022-08-16T22:19:01.795Z,20.40
2022-08-16T22:21:35.283Z,20.30
2022-08-16T22:24:03.742Z,20.20
2022-08-16T22:26:33.961Z,20.20
2022-08-16T22:29:04.412Z,20.10
2022-08-16T22:31:33.074Z,20.10
2022-08-16T22:34:02.321Z,20.10
2022-08-16T22:36:31.454Z,20.00
2022-08-16T22:39:06.062Z,20.00
2022-08-16T22:41:36.220Z,20.00
2022-08-16T22:44:06.274Z,19.90
2022-08-16T22:46:36.511Z,19.90
2022-08-16T22:49:05.704Z,19.80
2022-08-16T22:51:34.562Z,19.80
2022-08-16T22:54:33.967Z,19.80
2022-08-16T22:56:52.812Z,19.80
2022-08-16T22:59:20.885Z,19.70
2022-08-16T23:01:48.996Z,19.70
2022-08-16T23:04:17.239Z,19.60
2022-08-16T23:06:45.301Z,19.60
2022-08-16T23:09:14.981Z,19.50
2022-08-16T23:11:43.166Z,19.50
2022-08-16T23:14:11.379Z,19.50
2022-08-16T23:16:39.887Z,19.40
2022-08-16T23:19:10.017Z,19.40
2022-08-16T23:21:40.663Z,19.30
2022-08-16T23:24:09.781Z,19.30
2022-08-16T23:26:47.903Z,19.30
2022-08-16T23:29:24.771Z,19.20
2022-08-16T23:32:00.393Z,19.20
2022-08-16T23:34:30.032Z,19.10
2022-08-16T23:36:58.189Z,19.10
2022-08-16T23:39:26.311Z,19.10
2022-08-16T23:41:56.850Z,19.00
2022-08-16T23:44:55.744Z,19.00
2022-08-16T23:47:13.855Z,19.00
2022-08-16T23:50:01.699Z,19.00
2022-08-16T23:52:53.084Z,19.00
2022-08-16T23:55:18.674Z,19.00
2022-08-16T23:57:48.292Z,19.00
